sensor_id;sensor_type;location;lat;lon;timestamp;P1;durP1;ratioP1;P2;durP2;ratioP2
14169;SDS011;63889;50.596;8.690;2023-03-23T00:01:15;0.40;;;0.40;;
14169;SDS011;63889;50.596;8.690;2023-03-23T00:03:44;2.63;;;0.63;;
14169;SDS011;63889;50.596;8.690;2023-03-23T00:06:12;4.78;;;0.60;;
14169;SDS011;63889;50.596;8.690;2023-03-23T00:08:42;1.20;;;0.60;;
14169;SDS011;63889;50.596;8.690;2023-03-23T00:11:16;1.63;;;0.60;;
14169;SDS011;63889;50.596;8.690;2023-03-23T00:13:49;1.58;;;0.77;;
14169;SDS011;63889;50.596;8.690;2023-03-23T00:16:19;5.60;;;0.68;;
14169;SDS011;63889;50.596;8.690;2023-03-23T00:18:53;1.80;;;0.60;;
14169;SDS011;63889;50.596;8.690;2023-03-23T00:21:20;3.30;;;0.70;;
14169;SDS011;63889;50.596;8.690;2023-03-23T00:23:50;1.08;;;0.60;;
14169;SDS011;63889;50.596;8.690;2023-03-23T00:26:16;3.13;;;0.70;;
14169;SDS011;63889;50.596;8.690;2023-03-23T00:28:43;2.25;;;0.75;;
14169;SDS011;63889;50.596;8.690;2023-03-23T00:31:11;2.13;;;0.65;;
14169;SDS011;63889;50.596;8.690;2023-03-23T00:33:37;0.90;;;0.68;;
14169;SDS011;63889;50.596;8.690;2023-03-23T00:36:05;2.30;;;0.60;;
14169;SDS011;63889;50.596;8.690;2023-03-23T00:38:33;2.72;;;0.60;;
14169;SDS011;63889;50.596;8.690;2023-03-23T00:40:59;2.97;;;0.70;;
14169;SDS011;63889;50.596;8.690;2023-03-23T00:43:27;2.97;;;0.90;;
14169;SDS011;63889;50.596;8.690;2023-03-23T00:45:54;3.50;;;1.08;;
14169;SDS011;63889;50.596;8.690;2023-03-23T00:48:24;3.08;;;0.80;;
14169;SDS011;63889;50.596;8.690;2023-03-23T00:50:50;2.28;;;0.90;;
14169;SDS011;63889;50.596;8.690;2023-03-23T00:53:17;3.67;;;0.82;;
14169;SDS011;63889;50.596;8.690;2023-03-23T00:55:44;2.47;;;0.77;;
14169;SDS011;63889;50.596;8.690;2023-03-23T00:58:10;1.30;;;0.52;;
14169;SDS011;63889;50.596;8.690;2023-03-23T01:00:37;1.20;;;0.90;;
14169;SDS011;63889;50.596;8.690;2023-03-23T01:03:03;1.58;;;0.65;;
14169;SDS011;63889;50.596;8.690;2023-03-23T01:05:32;1.83;;;0.88;;
14169;SDS011;63889;50.596;8.690;2023-03-23T01:08:02;0.88;;;0.65;;
14169;SDS011;63889;50.596;8.690;2023-03-23T01:10:29;2.05;;;1.00;;
14169;SDS011;63889;50.596;8.690;2023-03-23T01:12:58;2.15;;;0.68;;
14169;SDS011;63889;50.596;8.690;2023-03-23T01:15:28;1.20;;;0.68;;
14169;SDS011;63889;50.596;8.690;2023-03-23T01:17:54;2.13;;;0.80;;
14169;SDS011;63889;50.596;8.690;2023-03-23T01:20:21;1.27;;;0.70;;
14169;SDS011;63889;50.596;8.690;2023-03-23T01:22:46;1.48;;;1.20;;
14169;SDS011;63889;50.596;8.690;2023-03-23T01:25:12;0.55;;;0.55;;
14169;SDS011;63889;50.596;8.690;2023-03-23T01:27:39;1.13;;;0.75;;
14169;SDS011;63889;50.596;8.690;2023-03-23T01:30:05;3.55;;;1.15;;
14169;SDS011;63889;50.596;8.690;2023-03-23T01:32:33;3.47;;;1.40;;
14169;SDS011;63889;50.596;8.690;2023-03-23T01:34:59;3.38;;;0.95;;
14169;SDS011;63889;50.596;8.690;2023-03-23T01:37:25;2.90;;;1.15;;
14169;SDS011;63889;50.596;8.690;2023-03-23T01:39:55;3.75;;;1.20;;
14169;SDS011;63889;50.596;8.690;2023-03-23T01:42:25;4.45;;;1.10;;
14169;SDS011;63889;50.596;8.690;2023-03-23T01:50:24;6.60;;;1.20;;
14169;SDS011;63889;50.596;8.690;2023-03-23T01:52:52;1.75;;;0.70;;
14169;SDS011;63889;50.596;8.690;2023-03-23T01:55:20;2.53;;;0.90;;
14169;SDS011;63889;50.596;8.690;2023-03-23T01:57:47;1.55;;;1.10;;
14169;SDS011;63889;50.596;8.690;2023-03-23T02:00:13;2.25;;;0.85;;
14169;SDS011;63889;50.596;8.690;2023-03-23T02:02:41;1.35;;;0.90;;
14169;SDS011;63889;50.596;8.690;2023-03-23T02:05:14;1.55;;;0.90;;
14169;SDS011;63889;50.596;8.690;2023-03-23T02:07:56;2.78;;;0.57;;
14169;SDS011;63889;50.596;8.690;2023-03-23T02:10:28;3.42;;;1.10;;
14169;SDS011;63889;50.596;8.690;2023-03-23T02:12:55;3.33;;;1.08;;
14169;SDS011;63889;50.596;8.690;2023-03-23T02:15:21;2.63;;;1.00;;
14169;SDS011;63889;50.596;8.690;2023-03-23T02:17:53;1.15;;;0.70;;
14169;SDS011;63889;50.596;8.690;2023-03-23T02:37:09;4.03;;;0.93;;
14169;SDS011;63889;50.596;8.690;2023-03-23T02:40:02;1.45;;;0.80;;
14169;SDS011;63889;50.596;8.690;2023-03-23T02:42:37;3.17;;;1.02;;
14169;SDS011;63889;50.596;8.690;2023-03-23T02:45:07;3.70;;;1.00;;
14169;SDS011;63889;50.596;8.690;2023-03-23T02:47:35;1.92;;;0.70;;
14169;SDS011;63889;50.596;8.690;2023-03-23T02:50:03;3.00;;;0.90;;
14169;SDS011;63889;50.596;8.690;2023-03-23T02:52:32;1.02;;;0.73;;
14169;SDS011;63889;50.596;8.690;2023-03-23T02:54:59;1.33;;;0.98;;
14169;SDS011;63889;50.596;8.690;2023-03-23T02:57:26;2.40;;;0.90;;
14169;SDS011;63889;50.596;8.690;2023-03-23T02:59:53;0.93;;;0.77;;
14169;SDS011;63889;50.596;8.690;2023-03-23T03:02:23;2.20;;;0.80;;
14169;SDS011;63889;50.596;8.690;2023-03-23T03:07:50;1.67;;;0.88;;
14169;SDS011;63889;50.596;8.690;2023-03-23T03:10:43;3.63;;;1.42;;
14169;SDS011;63889;50.596;8.690;2023-03-23T03:13:29;2.10;;;1.02;;
14169;SDS011;63889;50.596;8.690;2023-03-23T03:16:27;2.17;;;1.08;;
14169;SDS011;63889;50.596;8.690;2023-03-23T03:19:06;2.03;;;0.98;;
14169;SDS011;63889;50.596;8.690;2023-03-23T03:21:37;2.55;;;0.93;;
14169;SDS011;63889;50.596;8.690;2023-03-23T03:24:07;1.75;;;0.70;;
14169;SDS011;63889;50.596;8.690;2023-03-23T03:26:36;2.58;;;1.10;;
14169;SDS011;63889;50.596;8.690;2023-03-23T03:29:05;1.92;;;0.98;;
14169;SDS011;63889;50.596;8.690;2023-03-23T03:31:33;1.27;;;0.80;;
14169;SDS011;63889;50.596;8.690;2023-03-23T03:34:03;1.10;;;0.63;;
14169;SDS011;63889;50.596;8.690;2023-03-23T03:36:29;3.33;;;0.93;;
14169;SDS011;63889;50.596;8.690;2023-03-23T03:39:00;1.60;;;0.88;;
14169;SDS011;63889;50.596;8.690;2023-03-23T03:41:30;0.68;;;0.63;;
14169;SDS011;63889;50.596;8.690;2023-03-23T03:43:55;1.50;;;0.75;;
14169;SDS011;63889;50.596;8.690;2023-03-23T03:46:21;3.83;;;1.10;;
14169;SDS011;63889;50.596;8.690;2023-03-23T03:48:46;3.13;;;0.73;;
14169;SDS011;63889;50.596;8.690;2023-03-23T03:51:12;3.63;;;0.80;;
14169;SDS011;63889;50.596;8.690;2023-03-23T03:53:37;0.95;;;0.60;;
14169;SDS011;63889;50.596;8.690;2023-03-23T03:56:03;1.05;;;0.68;;
14169;SDS011;63889;50.596;8.690;2023-03-23T03:58:30;1.08;;;0.63;;
14169;SDS011;63889;50.596;8.690;2023-03-23T04:00:58;1.60;;;0.82;;
14169;SDS011;63889;50.596;8.690;2023-03-23T04:03:24;0.80;;;0.70;;
14169;SDS011;63889;50.596;8.690;2023-03-23T04:05:50;2.55;;;0.90;;
14169;SDS011;63889;50.596;8.690;2023-03-23T04:08:16;1.08;;;0.80;;
14169;SDS011;63889;50.596;8.690;2023-03-23T04:10:42;1.55;;;1.02;;
14169;SDS011;63889;50.596;8.690;2023-03-23T04:13:08;1.00;;;0.85;;
14169;SDS011;63889;50.596;8.690;2023-03-23T04:15:33;0.82;;;0.70;;
14169;SDS011;63889;50.596;8.690;2023-03-23T04:17:59;3.45;;;0.80;;
14169;SDS011;63889;50.596;8.690;2023-03-23T04:20:25;1.15;;;0.80;;
14169;SDS011;63889;50.596;8.690;2023-03-23T04:22:51;4.07;;;1.20;;
14169;SDS011;63889;50.596;8.690;2023-03-23T04:25:20;1.00;;;0.70;;
14169;SDS011;63889;50.596;8.690;2023-03-23T04:27:46;1.30;;;0.90;;
14169;SDS011;63889;50.596;8.690;2023-03-23T04:30:17;4.70;;;1.10;;
14169;SDS011;63889;50.596;8.690;2023-03-23T04:32:44;3.00;;;0.70;;
14169;SDS011;63889;50.596;8.690;2023-03-23T04:35:12;4.25;;;0.70;;
14169;SDS011;63889;50.596;8.690;2023-03-23T04:37:39;2.60;;;1.00;;
14169;SDS011;63889;50.596;8.690;2023-03-23T04:40:06;1.20;;;0.90;;
14169;SDS011;63889;50.596;8.690;2023-03-23T04:42:35;1.90;;;0.70;;
14169;SDS011;63889;50.596;8.690;2023-03-23T04:45:03;2.65;;;1.00;;
14169;SDS011;63889;50.596;8.690;2023-03-23T04:47:31;4.50;;;0.85;;
14169;SDS011;63889;50.596;8.690;2023-03-23T04:49:59;6.20;;;1.25;;
14169;SDS011;63889;50.596;8.690;2023-03-23T04:52:26;2.58;;;1.05;;
14169;SDS011;63889;50.596;8.690;2023-03-23T04:54:53;3.03;;;1.10;;
14169;SDS011;63889;50.596;8.690;2023-03-23T04:57:20;1.42;;;0.98;;
14169;SDS011;63889;50.596;8.690;2023-03-23T04:59:47;1.55;;;1.20;;
14169;SDS011;63889;50.596;8.690;2023-03-23T05:02:12;2.90;;;1.20;;
14169;SDS011;63889;50.596;8.690;2023-03-23T05:04:39;4.63;;;0.98;;
14169;SDS011;63889;50.596;8.690;2023-03-23T05:07:05;1.58;;;0.70;;
14169;SDS011;63889;50.596;8.690;2023-03-23T05:09:32;3.47;;;0.90;;
14169;SDS011;63889;50.596;8.690;2023-03-23T05:12:02;7.78;;;0.95;;
14169;SDS011;63889;50.596;8.690;2023-03-23T05:16:55;1.98;;;0.85;;
14169;SDS011;63889;50.596;8.690;2023-03-23T05:19:21;1.95;;;0.80;;
14169;SDS011;63889;50.596;8.690;2023-03-23T05:21:46;5.82;;;1.13;;
14169;SDS011;63889;50.596;8.690;2023-03-23T05:24:12;4.38;;;1.20;;
14169;SDS011;63889;50.596;8.690;2023-03-23T05:26:37;2.47;;;1.20;;
14169;SDS011;63889;50.596;8.690;2023-03-23T05:29:03;2.40;;;0.93;;
14169;SDS011;63889;50.596;8.690;2023-03-23T05:31:29;2.92;;;1.10;;
14169;SDS011;63889;50.596;8.690;2023-03-23T05:33:55;1.55;;;0.90;;
14169;SDS011;63889;50.596;8.690;2023-03-23T05:36:21;3.97;;;1.02;;
14169;SDS011;63889;50.596;8.690;2023-03-23T05:38:48;10.57;;;1.60;;
14169;SDS011;63889;50.596;8.690;2023-03-23T05:41:16;1.25;;;1.13;;
14169;SDS011;63889;50.596;8.690;2023-03-23T05:43:41;2.00;;;1.23;;
14169;SDS011;63889;50.596;8.690;2023-03-23T05:46:07;4.13;;;1.30;;
14169;SDS011;63889;50.596;8.690;2023-03-23T05:48:33;2.58;;;1.08;;
14169;SDS011;63889;50.596;8.690;2023-03-23T05:50:59;5.15;;;1.13;;
14169;SDS011;63889;50.596;8.690;2023-03-23T05:53:25;2.50;;;0.90;;
14169;SDS011;63889;50.596;8.690;2023-03-23T05:55:51;3.22;;;1.27;;
14169;SDS011;63889;50.596;8.690;2023-03-23T05:58:17;2.90;;;1.38;;
14169;SDS011;63889;50.596;8.690;2023-03-23T06:00:43;3.17;;;1.20;;
14169;SDS011;63889;50.596;8.690;2023-03-23T06:03:10;4.50;;;1.20;;
14169;SDS011;63889;50.596;8.690;2023-03-23T06:05:37;5.90;;;1.33;;
14169;SDS011;63889;50.596;8.690;2023-03-23T06:08:09;3.22;;;1.45;;
14169;SDS011;63889;50.596;8.690;2023-03-23T06:10:34;2.67;;;0.82;;
14169;SDS011;63889;50.596;8.690;2023-03-23T06:13:01;2.00;;;1.20;;
14169;SDS011;63889;50.596;8.690;2023-03-23T06:15:27;4.82;;;1.70;;
14169;SDS011;63889;50.596;8.690;2023-03-23T06:17:58;6.30;;;1.33;;
14169;SDS011;63889;50.596;8.690;2023-03-23T06:20:27;1.88;;;0.90;;
14169;SDS011;63889;50.596;8.690;2023-03-23T06:22:52;1.83;;;1.30;;
14169;SDS011;63889;50.596;8.690;2023-03-23T06:25:18;3.40;;;1.30;;
14169;SDS011;63889;50.596;8.690;2023-03-23T06:27:44;3.00;;;1.50;;
14169;SDS011;63889;50.596;8.690;2023-03-23T06:30:12;3.88;;;1.60;;
14169;SDS011;63889;50.596;8.690;2023-03-23T06:32:39;3.03;;;1.40;;
14169;SDS011;63889;50.596;8.690;2023-03-23T06:35:06;3.63;;;2.17;;
14169;SDS011;63889;50.596;8.690;2023-03-23T06:37:34;2.53;;;1.63;;
14169;SDS011;63889;50.596;8.690;2023-03-23T06:40:01;6.55;;;2.00;;
14169;SDS011;63889;50.596;8.690;2023-03-23T06:42:29;5.68;;;2.38;;
14169;SDS011;63889;50.596;8.690;2023-03-23T06:44:55;4.10;;;2.30;;
14169;SDS011;63889;50.596;8.690;2023-03-23T06:47:22;4.35;;;1.90;;
14169;SDS011;63889;50.596;8.690;2023-03-23T06:49:48;5.43;;;2.00;;
14169;SDS011;63889;50.596;8.690;2023-03-23T06:52:14;4.38;;;1.67;;
14169;SDS011;63889;50.596;8.690;2023-03-23T06:54:40;5.03;;;1.92;;
14169;SDS011;63889;50.596;8.690;2023-03-23T06:57:05;10.02;;;2.10;;
14169;SDS011;63889;50.596;8.690;2023-03-23T06:59:32;15.50;;;2.38;;
14169;SDS011;63889;50.596;8.690;2023-03-23T07:01:57;3.08;;;1.23;;
14169;SDS011;63889;50.596;8.690;2023-03-23T07:04:23;2.60;;;1.20;;
14169;SDS011;63889;50.596;8.690;2023-03-23T07:06:48;5.65;;;1.40;;
14169;SDS011;63889;50.596;8.690;2023-03-23T07:09:14;5.63;;;1.40;;
14169;SDS011;63889;50.596;8.690;2023-03-23T07:11:40;2.53;;;1.35;;
14169;SDS011;63889;50.596;8.690;2023-03-23T07:14:06;4.75;;;1.40;;
14169;SDS011;63889;50.596;8.690;2023-03-23T07:16:32;3.97;;;1.48;;
14169;SDS011;63889;50.596;8.690;2023-03-23T07:18:57;4.82;;;1.50;;
14169;SDS011;63889;50.596;8.690;2023-03-23T07:21:24;4.45;;;1.20;;
14169;SDS011;63889;50.596;8.690;2023-03-23T07:23:49;3.22;;;1.20;;
14169;SDS011;63889;50.596;8.690;2023-03-23T07:26:15;3.25;;;1.73;;
14169;SDS011;63889;50.596;8.690;2023-03-23T07:28:41;4.20;;;1.35;;
14169;SDS011;63889;50.596;8.690;2023-03-23T07:31:07;3.78;;;1.30;;
14169;SDS011;63889;50.596;8.690;2023-03-23T07:33:34;4.70;;;1.58;;
14169;SDS011;63889;50.596;8.690;2023-03-23T07:36:00;3.08;;;1.30;;
14169;SDS011;63889;50.596;8.690;2023-03-23T07:38:28;1.63;;;1.10;;
14169;SDS011;63889;50.596;8.690;2023-03-23T07:40:54;1.20;;;0.95;;
14169;SDS011;63889;50.596;8.690;2023-03-23T07:43:21;1.42;;;1.00;;
14169;SDS011;63889;50.596;8.690;2023-03-23T07:45:47;4.95;;;1.52;;
14169;SDS011;63889;50.596;8.690;2023-03-23T07:48:13;1.73;;;1.08;;
14169;SDS011;63889;50.596;8.690;2023-03-23T07:50:38;1.83;;;1.02;;
14169;SDS011;63889;50.596;8.690;2023-03-23T07:53:04;1.45;;;0.98;;
14169;SDS011;63889;50.596;8.690;2023-03-23T07:55:30;2.45;;;1.25;;
14169;SDS011;63889;50.596;8.690;2023-03-23T07:57:55;1.33;;;1.02;;
14169;SDS011;63889;50.596;8.690;2023-03-23T08:00:22;1.00;;;0.90;;
14169;SDS011;63889;50.596;8.690;2023-03-23T08:02:52;3.80;;;1.10;;
14169;SDS011;63889;50.596;8.690;2023-03-23T08:05:24;2.10;;;0.82;;
14169;SDS011;63889;50.596;8.690;2023-03-23T08:07:51;1.95;;;1.02;;
14169;SDS011;63889;50.596;8.690;2023-03-23T08:10:19;2.65;;;1.00;;
14169;SDS011;63889;50.596;8.690;2023-03-23T08:12:50;1.20;;;0.80;;
14169;SDS011;63889;50.596;8.690;2023-03-23T08:15:17;3.33;;;0.88;;
14169;SDS011;63889;50.596;8.690;2023-03-23T08:17:44;2.45;;;1.00;;
14169;SDS011;63889;50.596;8.690;2023-03-23T08:20:10;3.10;;;0.70;;
14169;SDS011;63889;50.596;8.690;2023-03-23T08:22:41;2.05;;;0.80;;
14169;SDS011;63889;50.596;8.690;2023-03-23T08:25:10;4.43;;;0.93;;
14169;SDS011;63889;50.596;8.690;2023-03-23T08:27:37;2.60;;;0.90;;
14169;SDS011;63889;50.596;8.690;2023-03-23T08:30:08;1.73;;;0.95;;
14169;SDS011;63889;50.596;8.690;2023-03-23T08:32:35;1.25;;;0.90;;
14169;SDS011;63889;50.596;8.690;2023-03-23T08:35:01;3.45;;;1.10;;
14169;SDS011;63889;50.596;8.690;2023-03-23T08:37:28;2.10;;;1.08;;
14169;SDS011;63889;50.596;8.690;2023-03-23T08:39:54;4.70;;;1.08;;
14169;SDS011;63889;50.596;8.690;2023-03-23T08:42:22;1.42;;;0.95;;
14169;SDS011;63889;50.596;8.690;2023-03-23T08:44:49;1.45;;;0.88;;
14169;SDS011;63889;50.596;8.690;2023-03-23T08:47:15;1.52;;;0.98;;
14169;SDS011;63889;50.596;8.690;2023-03-23T08:49:41;2.38;;;0.88;;
14169;SDS011;63889;50.596;8.690;2023-03-23T08:52:07;2.22;;;1.10;;
14169;SDS011;63889;50.596;8.690;2023-03-23T08:54:34;3.85;;;1.10;;
14169;SDS011;63889;50.596;8.690;2023-03-23T08:57:00;2.00;;;0.90;;
14169;SDS011;63889;50.596;8.690;2023-03-23T08:59:26;2.90;;;1.00;;
14169;SDS011;63889;50.596;8.690;2023-03-23T09:01:52;2.25;;;1.30;;
14169;SDS011;63889;50.596;8.690;2023-03-23T09:04:19;2.08;;;0.80;;
14169;SDS011;63889;50.596;8.690;2023-03-23T09:06:45;1.95;;;0.90;;
14169;SDS011;63889;50.596;8.690;2023-03-23T09:09:12;2.03;;;0.90;;
14169;SDS011;63889;50.596;8.690;2023-03-23T09:11:38;0.95;;;0.63;;
14169;SDS011;63889;50.596;8.690;2023-03-23T09:14:05;0.95;;;0.60;;
14169;SDS011;63889;50.596;8.690;2023-03-23T09:16:32;3.63;;;0.57;;
14169;SDS011;63889;50.596;8.690;2023-03-23T09:18:58;6.13;;;0.60;;
14169;SDS011;63889;50.596;8.690;2023-03-23T09:21:25;1.92;;;0.60;;
14169;SDS011;63889;50.596;8.690;2023-03-23T09:23:52;0.73;;;0.60;;
14169;SDS011;63889;50.596;8.690;2023-03-23T09:26:18;0.95;;;0.85;;
14169;SDS011;63889;50.596;8.690;2023-03-23T09:28:44;1.13;;;0.70;;
14169;SDS011;63889;50.596;8.690;2023-03-23T09:31:10;2.47;;;0.60;;
14169;SDS011;63889;50.596;8.690;2023-03-23T09:33:38;0.80;;;0.70;;
14169;SDS011;63889;50.596;8.690;2023-03-23T09:36:03;2.38;;;0.68;;
14169;SDS011;63889;50.596;8.690;2023-03-23T09:38:30;1.20;;;0.68;;
14169;SDS011;63889;50.596;8.690;2023-03-23T09:41:04;1.60;;;0.70;;
14169;SDS011;63889;50.596;8.690;2023-03-23T09:43:39;2.83;;;0.85;;
14169;SDS011;63889;50.596;8.690;2023-03-23T09:47:14;1.50;;;0.75;;
14169;SDS011;63889;50.596;8.690;2023-03-23T09:49:23;2.08;;;0.95;;
14169;SDS011;63889;50.596;8.690;2023-03-23T09:54:34;2.20;;;0.80;;
14169;SDS011;63889;50.596;8.690;2023-03-23T09:57:04;2.80;;;0.93;;
14169;SDS011;63889;50.596;8.690;2023-03-23T09:59:57;1.95;;;0.77;;
14169;SDS011;63889;50.596;8.690;2023-03-23T10:02:43;4.85;;;1.20;;
14169;SDS011;63889;50.596;8.690;2023-03-23T10:08:02;2.45;;;0.70;;
14169;SDS011;63889;50.596;8.690;2023-03-23T10:10:45;3.08;;;1.13;;
14169;SDS011;63889;50.596;8.690;2023-03-23T10:13:28;1.65;;;0.80;;
14169;SDS011;63889;50.596;8.690;2023-03-23T10:16:20;2.50;;;0.80;;
14169;SDS011;63889;50.596;8.690;2023-03-23T10:19:00;2.85;;;1.05;;
14169;SDS011;63889;50.596;8.690;2023-03-23T10:22:03;2.58;;;1.40;;
14169;SDS011;63889;50.596;8.690;2023-03-23T10:24:43;3.63;;;1.27;;
14169;SDS011;63889;50.596;8.690;2023-03-23T10:27:29;2.50;;;0.70;;
14169;SDS011;63889;50.596;8.690;2023-03-23T10:30:05;2.50;;;0.80;;
14169;SDS011;63889;50.596;8.690;2023-03-23T10:33:02;4.72;;;0.98;;
14169;SDS011;63889;50.596;8.690;2023-03-23T10:35:33;2.38;;;0.95;;
14169;SDS011;63889;50.596;8.690;2023-03-23T10:38:13;4.07;;;0.90;;
14169;SDS011;63889;50.596;8.690;2023-03-23T10:41:18;1.02;;;0.63;;
14169;SDS011;63889;50.596;8.690;2023-03-23T10:43:41;2.70;;;0.70;;
14169;SDS011;63889;50.596;8.690;2023-03-23T10:46:14;1.15;;;0.75;;
14169;SDS011;63889;50.596;8.690;2023-03-23T10:48:47;3.35;;;1.73;;
14169;SDS011;63889;50.596;8.690;2023-03-23T10:51:16;1.15;;;0.80;;
14169;SDS011;63889;50.596;8.690;2023-03-23T10:53:49;3.53;;;0.90;;
14169;SDS011;63889;50.596;8.690;2023-03-23T10:56:28;1.48;;;0.95;;
14169;SDS011;63889;50.596;8.690;2023-03-23T10:59:10;1.50;;;0.80;;
14169;SDS011;63889;50.596;8.690;2023-03-23T11:01:41;1.27;;;0.68;;
14169;SDS011;63889;50.596;8.690;2023-03-23T11:04:13;1.65;;;0.68;;
14169;SDS011;63889;50.596;8.690;2023-03-23T11:06:43;0.93;;;0.70;;
14169;SDS011;63889;50.596;8.690;2023-03-23T11:09:13;2.58;;;0.57;;
14169;SDS011;63889;50.596;8.690;2023-03-23T11:11:42;2.35;;;0.77;;
14169;SDS011;63889;50.596;8.690;2023-03-23T11:14:18;2.25;;;0.63;;
14169;SDS011;63889;50.596;8.690;2023-03-23T11:16:51;2.08;;;0.40;;
14169;SDS011;63889;50.596;8.690;2023-03-23T11:19:33;1.00;;;0.52;;
14169;SDS011;63889;50.596;8.690;2023-03-23T11:24:30;0.63;;;0.45;;
14169;SDS011;63889;50.596;8.690;2023-03-23T11:27:01;2.67;;;0.57;;
14169;SDS011;63889;50.596;8.690;2023-03-23T11:29:31;1.95;;;0.88;;
14169;SDS011;63889;50.596;8.690;2023-03-23T11:34:31;1.25;;;0.70;;
14169;SDS011;63889;50.596;8.690;2023-03-23T11:37:02;0.93;;;0.70;;
14169;SDS011;63889;50.596;8.690;2023-03-23T11:39:48;1.92;;;0.70;;
14169;SDS011;63889;50.596;8.690;2023-03-23T11:42:20;1.87;;;0.60;;
14169;SDS011;63889;50.596;8.690;2023-03-23T11:44:46;1.45;;;0.70;;
14169;SDS011;63889;50.596;8.690;2023-03-23T11:47:26;2.72;;;0.80;;
14169;SDS011;63889;50.596;8.690;2023-03-23T11:49:57;0.63;;;0.55;;
14169;SDS011;63889;50.596;8.690;2023-03-23T11:52:39;1.80;;;0.63;;
14169;SDS011;63889;50.596;8.690;2023-03-23T11:55:28;2.67;;;0.70;;
14169;SDS011;63889;50.596;8.690;2023-03-23T11:58:04;3.25;;;0.60;;
14169;SDS011;63889;50.596;8.690;2023-03-23T12:00:38;1.05;;;0.47;;
14169;SDS011;63889;50.596;8.690;2023-03-23T12:03:09;1.30;;;0.73;;
14169;SDS011;63889;50.596;8.690;2023-03-23T12:06:02;1.00;;;0.50;;
14169;SDS011;63889;50.596;8.690;2023-03-23T12:13:54;1.30;;;0.60;;
14169;SDS011;63889;50.596;8.690;2023-03-23T12:21:39;0.47;;;0.32;;
14169;SDS011;63889;50.596;8.690;2023-03-23T12:24:15;1.15;;;0.55;;
14169;SDS011;63889;50.596;8.690;2023-03-23T12:27:23;1.60;;;0.73;;
14169;SDS011;63889;50.596;8.690;2023-03-23T12:29:55;0.70;;;0.40;;
14169;SDS011;63889;50.596;8.690;2023-03-23T12:32:32;0.63;;;0.50;;
14169;SDS011;63889;50.596;8.690;2023-03-23T12:35:14;0.52;;;0.43;;
14169;SDS011;63889;50.596;8.690;2023-03-23T12:38:23;0.95;;;0.30;;
14169;SDS011;63889;50.596;8.690;2023-03-23T12:41:15;0.80;;;0.50;;
14169;SDS011;63889;50.596;8.690;2023-03-23T12:54:58;1.50;;;0.35;;
14169;SDS011;63889;50.596;8.690;2023-03-23T12:57:33;0.77;;;0.52;;
14169;SDS011;63889;50.596;8.690;2023-03-23T13:02:56;0.75;;;0.40;;
14169;SDS011;63889;50.596;8.690;2023-03-23T13:05:57;2.58;;;0.43;;
14169;SDS011;63889;50.596;8.690;2023-03-23T13:08:33;0.55;;;0.35;;
14169;SDS011;63889;50.596;8.690;2023-03-23T13:11:14;1.77;;;0.50;;
14169;SDS011;63889;50.596;8.690;2023-03-23T13:13:49;1.77;;;0.55;;
14169;SDS011;63889;50.596;8.690;2023-03-23T13:16:24;0.52;;;0.40;;
14169;SDS011;63889;50.596;8.690;2023-03-23T13:19:04;1.08;;;0.50;;
14169;SDS011;63889;50.596;8.690;2023-03-23T13:21:41;1.17;;;0.40;;
14169;SDS011;63889;50.596;8.690;2023-03-23T13:24:14;2.08;;;0.47;;
14169;SDS011;63889;50.596;8.690;2023-03-23T13:26:43;0.75;;;0.50;;
14169;SDS011;63889;50.596;8.690;2023-03-23T13:29:13;0.85;;;0.40;;
14169;SDS011;63889;50.596;8.690;2023-03-23T13:31:44;1.60;;;0.50;;
14169;SDS011;63889;50.596;8.690;2023-03-23T13:37:00;0.63;;;0.30;;
14169;SDS011;63889;50.596;8.690;2023-03-23T13:42:22;3.60;;;0.40;;
14169;SDS011;63889;50.596;8.690;2023-03-23T13:49:51;0.95;;;0.40;;
14169;SDS011;63889;50.596;8.690;2023-03-23T13:52:39;0.57;;;0.45;;
14169;SDS011;63889;50.596;8.690;2023-03-23T13:55:30;0.40;;;0.40;;
14169;SDS011;63889;50.596;8.690;2023-03-23T14:10:54;1.88;;;0.50;;
14169;SDS011;63889;50.596;8.690;2023-03-23T14:16:19;1.83;;;0.38;;
14169;SDS011;63889;50.596;8.690;2023-03-23T14:18:49;1.08;;;0.50;;
14169;SDS011;63889;50.596;8.690;2023-03-23T14:21:38;0.95;;;0.60;;
14169;SDS011;63889;50.596;8.690;2023-03-23T14:24:09;1.27;;;0.50;;
14169;SDS011;63889;50.596;8.690;2023-03-23T14:26:41;5.22;;;0.60;;
14169;SDS011;63889;50.596;8.690;2023-03-23T14:29:09;0.80;;;0.50;;
14169;SDS011;63889;50.596;8.690;2023-03-23T14:31:36;0.47;;;0.47;;
14169;SDS011;63889;50.596;8.690;2023-03-23T14:34:04;0.43;;;0.30;;
14169;SDS011;63889;50.596;8.690;2023-03-23T14:36:43;0.60;;;0.40;;
14169;SDS011;63889;50.596;8.690;2023-03-23T14:39:23;1.75;;;0.30;;
14169;SDS011;63889;50.596;8.690;2023-03-23T14:42:03;0.40;;;0.30;;
14169;SDS011;63889;50.596;8.690;2023-03-23T14:44:57;1.02;;;0.55;;
14169;SDS011;63889;50.596;8.690;2023-03-23T14:47:24;0.25;;;0.25;;
14169;SDS011;63889;50.596;8.690;2023-03-23T14:49:54;0.25;;;0.25;;
14169;SDS011;63889;50.596;8.690;2023-03-23T14:52:23;0.30;;;0.30;;
14169;SDS011;63889;50.596;8.690;2023-03-23T14:54:53;1.50;;;0.32;;
14169;SDS011;63889;50.596;8.690;2023-03-23T14:57:26;0.30;;;0.30;;
14169;SDS011;63889;50.596;8.690;2023-03-23T14:59:53;1.00;;;0.60;;
14169;SDS011;63889;50.596;8.690;2023-03-23T15:02:24;11.75;;;0.90;;
14169;SDS011;63889;50.596;8.690;2023-03-23T15:05:11;0.82;;;0.40;;
14169;SDS011;63889;50.596;8.690;2023-03-23T15:08:06;1.35;;;0.52;;
14169;SDS011;63889;50.596;8.690;2023-03-23T15:13:04;0.32;;;0.25;;
14169;SDS011;63889;50.596;8.690;2023-03-23T15:15:34;0.63;;;0.57;;
14169;SDS011;63889;50.596;8.690;2023-03-23T15:18:01;0.60;;;0.50;;
14169;SDS011;63889;50.596;8.690;2023-03-23T15:20:28;2.03;;;0.43;;
14169;SDS011;63889;50.596;8.690;2023-03-23T15:22:57;0.47;;;0.30;;
14169;SDS011;63889;50.596;8.690;2023-03-23T15:25:31;0.55;;;0.30;;
14169;SDS011;63889;50.596;8.690;2023-03-23T15:28:14;1.45;;;0.30;;
14169;SDS011;63889;50.596;8.690;2023-03-23T15:30:49;0.60;;;0.50;;
14169;SDS011;63889;50.596;8.690;2023-03-23T15:33:17;1.83;;;0.60;;
14169;SDS011;63889;50.596;8.690;2023-03-23T15:35:48;1.50;;;0.50;;
14169;SDS011;63889;50.596;8.690;2023-03-23T15:38:20;0.65;;;0.50;;
14169;SDS011;63889;50.596;8.690;2023-03-23T15:40:49;1.00;;;0.40;;
14169;SDS011;63889;50.596;8.690;2023-03-23T15:45:55;0.98;;;0.32;;
14169;SDS011;63889;50.596;8.690;2023-03-23T15:48:29;0.85;;;0.38;;
14169;SDS011;63889;50.596;8.690;2023-03-23T15:50:56;0.93;;;0.40;;
14169;SDS011;63889;50.596;8.690;2023-03-23T15:55:48;0.45;;;0.35;;
14169;SDS011;63889;50.596;8.690;2023-03-23T15:58:13;2.05;;;0.80;;
14169;SDS011;63889;50.596;8.690;2023-03-23T16:00:39;1.70;;;0.95;;
14169;SDS011;63889;50.596;8.690;2023-03-23T16:03:10;0.65;;;0.38;;
14169;SDS011;63889;50.596;8.690;2023-03-23T16:05:38;2.40;;;1.02;;
14169;SDS011;63889;50.596;8.690;2023-03-23T16:08:04;2.53;;;0.65;;
14169;SDS011;63889;50.596;8.690;2023-03-23T16:10:30;1.15;;;0.60;;
14169;SDS011;63889;50.596;8.690;2023-03-23T16:12:55;0.68;;;0.50;;
14169;SDS011;63889;50.596;8.690;2023-03-23T16:15:21;1.48;;;0.60;;
14169;SDS011;63889;50.596;8.690;2023-03-23T16:17:47;2.55;;;0.70;;
14169;SDS011;63889;50.596;8.690;2023-03-23T16:20:14;1.17;;;0.60;;
14169;SDS011;63889;50.596;8.690;2023-03-23T16:22:41;1.35;;;0.60;;
14169;SDS011;63889;50.596;8.690;2023-03-23T16:25:07;0.60;;;0.40;;
14169;SDS011;63889;50.596;8.690;2023-03-23T16:27:33;1.55;;;0.75;;
14169;SDS011;63889;50.596;8.690;2023-03-23T16:30:00;2.50;;;0.82;;
14169;SDS011;63889;50.596;8.690;2023-03-23T16:32:27;1.27;;;0.65;;
14169;SDS011;63889;50.596;8.690;2023-03-23T16:34:53;1.98;;;0.80;;
14169;SDS011;63889;50.596;8.690;2023-03-23T16:37:19;3.85;;;0.80;;
14169;SDS011;63889;50.596;8.690;2023-03-23T16:39:45;3.05;;;1.00;;
14169;SDS011;63889;50.596;8.690;2023-03-23T16:42:11;1.33;;;0.50;;
14169;SDS011;63889;50.596;8.690;2023-03-23T16:44:36;2.38;;;0.95;;